Time;durP1;ratioP1;P1;durP2;ratioP2;P2;SDS_P1;SDS_P2;PMS_P1;PMS_P2;Temp;Humidity;BMP_temperature;BMP_pressure;BME280_temperature;BME280_humidity;BME280_pressure;Samples;Min_cycle;Max_cycle;Signal;HPM_P1;HPM_P2
2022/01/12 00:01:42;;;;;;;11.20;5.55;;;;;;;0.94;100.00;100440.34;4090357;28;20083;-72
2022/01/12 00:03:44;;;;;;;13.43;6.80;;;;;;;0.95;100.00;100437.34;4090271;28;20050;-72
2022/01/12 00:05:44;;;;;;;10.40;6.20;;;;;;;0.97;100.00;100442.53;4090541;28;20091;-72
2022/01/12 00:07:50;;;;;;;10.45;5.93;;;;;;;0.94;100.00;100441.16;4092858;28;20275;-72
2022/01/12 00:09:50;;;;;;;9.95;6.47;;;;;;;0.95;100.00;100445.53;4102746;28;20083;-72
2022/01/12 00:11:50;;;;;;;11.48;6.53;;;;;;;0.90;100.00;100445.50;4090229;28;20403;-72
2022/01/12 00:13:52;;;;;;;11.40;6.85;;;;;;;0.87;100.00;100439.78;4089564;28;20077;-72
2022/01/12 00:15:53;;;;;;;9.77;6.15;;;;;;;0.84;100.00;100439.22;4090075;28;20447;-72
2022/01/12 00:17:53;;;;;;;9.85;5.57;;;;;;;0.78;100.00;100440.28;4089414;28;20369;-72
2022/01/12 00:19:54;;;;;;;9.15;5.30;;;;;;;0.76;100.00;100447.91;4089813;28;20078;-72
2022/01/12 00:21:55;;;;;;;10.27;5.43;;;;;;;0.75;100.00;100454.44;4089166;28;20047;-72
2022/01/12 00:23:56;;;;;;;9.75;4.80;;;;;;;0.75;100.00;100450.91;4091615;28;20043;-72
2022/01/12 00:26:04;;;;;;;8.60;4.95;;;;;;;0.72;100.00;100452.22;4096665;28;20540;-72
2022/01/12 00:35:02;;;;;;;9.35;5.50;;;;;;;0.66;98.49;100452.47;4095210;28;20070;-72
2022/01/12 00:37:03;;;;;;;10.25;5.43;;;;;;;0.66;98.37;100450.56;4088947;28;20075;-72
2022/01/12 00:39:06;;;;;;;8.98;5.22;;;;;;;0.65;99.20;100454.38;4089179;28;20039;-72
2022/01/12 00:41:06;;;;;;;9.75;5.28;;;;;;;0.66;98.55;100457.91;4090019;28;20048;-72
2022/01/12 00:43:07;;;;;;;9.32;5.18;;;;;;;0.65;98.45;100457.09;4089613;28;20435;-72
2022/01/12 00:45:09;;;;;;;9.82;5.18;;;;;;;0.67;97.36;100463.13;4089014;28;20453;-72
2022/01/12 00:47:10;;;;;;;9.70;5.70;;;;;;;0.65;97.40;100454.38;4089328;28;20066;-72
2022/01/12 00:49:10;;;;;;;12.10;6.35;;;;;;;0.68;99.25;100461.22;4089389;28;20050;-72
2022/01/12 00:51:11;;;;;;;9.30;6.05;;;;;;;0.67;100.00;100456.84;4089188;28;20066;-72
2022/01/12 00:53:12;;;;;;;9.35;5.18;;;;;;;0.64;100.00;100457.38;4089867;28;20046;-72
2022/01/12 00:55:12;;;;;;;9.38;5.13;;;;;;;0.64;100.00;100455.47;4089586;28;20051;-72
2022/01/12 00:57:12;;;;;;;8.65;5.03;;;;;;;0.67;100.00;100445.97;4089487;28;20058;-72
2022/01/12 00:59:13;;;;;;;9.88;5.28;;;;;;;0.67;100.00;100449.50;4088296;28;20534;-72
2022/01/12 01:01:14;;;;;;;9.57;5.35;;;;;;;0.65;100.00;100446.19;4089028;28;20391;-72
2022/01/12 01:03:15;;;;;;;12.88;4.97;;;;;;;0.62;100.00;100438.56;4101999;28;20055;-72
2022/01/12 01:05:19;;;;;;;6.18;4.13;;;;;;;0.62;100.00;100443.19;4091186;28;20051;-72
2022/01/12 01:07:20;;;;;;;8.35;5.43;;;;;;;0.61;100.00;100444.28;4090038;28;20065;-72
2022/01/12 01:09:20;;;;;;;8.63;4.95;;;;;;;0.59;99.56;100443.72;4090908;28;20079;-72
2022/01/12 01:11:23;;;;;;;8.90;4.35;;;;;;;0.54;99.88;100447.22;4089659;28;20083;-72
2022/01/12 01:13:28;;;;;;;8.18;4.43;;;;;;;0.53;100.00;100448.31;4088475;28;20118;-72
2022/01/12 01:15:54;;;;;;;9.13;4.53;;;;;;;0.50;100.00;100437.97;4089626;28;20372;-72
2022/01/12 01:27:13;;;;;;;8.20;4.22;;;;;;;0.27;98.28;100452.78;4089324;28;20150;-72
2022/01/12 01:29:14;;;;;;;7.75;4.22;;;;;;;0.25;97.70;100452.25;4097106;28;21034;-72
2022/01/12 01:31:14;;;;;;;6.95;4.22;;;;;;;0.22;96.96;100447.31;4094028;28;20050;-72
2022/01/12 01:33:17;;;;;;;6.97;4.20;;;;;;;0.20;97.09;100449.47;4093655;28;20696;-72
2022/01/12 01:35:18;;;;;;;5.32;3.75;;;;;;;0.13;94.33;100438.81;4091073;28;20093;-72
2022/01/12 01:37:19;;;;;;;6.40;4.22;;;;;;;0.11;97.61;100438.25;4088307;28;20090;-72
2022/01/12 01:39:22;;;;;;;6.43;3.63;;;;;;;0.13;97.85;100441.53;4088475;28;20790;-72
2022/01/12 01:41:23;;;;;;;8.27;4.47;;;;;;;0.11;94.71;100440.16;4089251;28;20043;-72
2022/01/12 01:43:42;;;;;;;5.07;3.70;;;;;;;0.09;96.29;100436.88;4088315;28;20380;-72
2022/01/12 01:55:04;;;;;;;5.38;3.53;;;;;;;-0.08;93.34;100432.41;4092279;28;20046;-72
2022/01/12 01:57:05;;;;;;;4.82;3.05;;;;;;;-0.13;93.46;100432.34;4087060;28;20051;-72
2022/01/12 01:59:05;;;;;;;7.45;4.55;;;;;;;-0.14;96.23;100429.91;4089040;28;20604;-72
2022/01/12 02:01:06;;;;;;;6.25;3.75;;;;;;;-0.10;97.36;100431.81;4091695;28;20059;-72
2022/01/12 02:03:06;;;;;;;6.05;4.15;;;;;;;-0.15;97.32;100423.63;4088187;28;20078;-72
2022/01/12 02:05:07;;;;;;;6.03;4.13;;;;;;;-0.17;96.33;100430.41;4104485;28;20457;-72
2022/01/12 02:07:08;;;;;;;6.97;4.03;;;;;;;-0.20;95.44;100433.66;4092169;28;20043;-72
2022/01/12 02:09:08;;;;;;;5.50;3.90;;;;;;;-0.21;95.69;100448.34;4090485;28;20044;-72
2022/01/12 02:11:08;;;;;;;7.30;3.95;;;;;;;-0.27;93.99;100447.47;4092987;28;20330;-72
2022/01/12 02:13:10;;;;;;;5.28;3.80;;;;;;;-0.25;93.66;100445.28;4087772;28;20637;-72
2022/01/12 02:15:19;;;;;;;6.93;4.45;;;;;;;-0.37;95.49;100453.63;4089669;28;20043;-72
2022/01/12 02:17:23;;;;;;;6.05;3.75;;;;;;;-0.42;95.79;100450.84;4087578;28;20549;-72
2022/01/12 02:35:49;;;;;;;8.68;4.18;;;;;;;-0.69;100.00;100450.03;4093041;28;20086;-72
2022/01/12 02:39:59;;;;;;;6.47;4.07;;;;;;;-0.71;99.22;100446.75;4090385;28;20047;-72
2022/01/12 02:41:59;;;;;;;5.57;3.92;;;;;;;-0.70;98.86;100449.22;4106044;28;20055;-72
2022/01/12 02:51:09;;;;;;;6.38;4.20;;;;;;;-0.69;97.79;100447.31;4090563;28;20058;-72
2022/01/12 02:55:31;;;;;;;6.28;3.72;;;;;;;-0.72;97.79;100450.56;4091389;28;20046;-72
2022/01/12 02:57:31;;;;;;;6.80;4.20;;;;;;;-0.70;97.02;100442.97;4087116;28;20066;-72
2022/01/12 02:59:32;;;;;;;5.72;3.58;;;;;;;-0.68;97.18;100443.53;4088064;28;20051;-72
2022/01/12 03:01:57;;;;;;;5.50;4.00;;;;;;;-0.67;97.00;100445.97;4088102;28;20079;-72
2022/01/12 03:03:55;;;;;;;5.38;3.45;;;;;;;-0.71;97.27;100449.50;4087378;28;20073;-72
2022/01/12 03:06:00;;;;;;;5.82;3.70;;;;;;;-0.69;97.43;100455.47;4088506;28;20780;-72
2022/01/12 03:08:10;;;;;;;4.53;3.28;;;;;;;-0.74;97.48;100447.28;4094959;28;20085;-72
2022/01/12 03:10:12;;;;;;;7.32;4.15;;;;;;;-0.74;97.99;100450.81;4088760;28;20348;-72
2022/01/12 03:12:12;;;;;;;6.65;4.10;;;;;;;-0.72;98.50;100459.53;4087574;28;20031;-72
2022/01/12 03:14:12;;;;;;;6.32;3.70;;;;;;;-0.73;98.23;100460.63;4087667;28;20089;-72
2022/01/12 03:16:15;;;;;;;7.05;4.00;;;;;;;-0.73;98.32;100448.94;4087749;28;20034;-72
2022/01/12 03:18:16;;;;;;;7.13;4.30;;;;;;;-0.71;99.30;100454.91;4087725;28;20039;-72
2022/01/12 03:20:16;;;;;;;5.72;3.55;;;;;;;-0.71;98.56;100453.03;4086561;28;20110;-72
2022/01/12 03:22:17;;;;;;;6.78;4.10;;;;;;;-0.71;98.50;100458.47;4094209;28;20429;-72
2022/01/12 03:24:17;;;;;;;6.55;4.13;;;;;;;-0.68;98.88;100463.38;4088447;28;20070;-72
2022/01/12 03:26:18;;;;;;;5.65;3.75;;;;;;;-0.72;98.11;100462.25;4092567;28;20138;-72
2022/01/12 03:28:18;;;;;;;5.50;3.60;;;;;;;-0.71;98.32;100453.03;4091490;28;20150;-72
2022/01/12 03:30:20;;;;;;;6.07;3.40;;;;;;;-0.66;98.70;100465.88;4090100;28;20062;-72
2022/01/12 03:32:27;;;;;;;5.55;3.22;;;;;;;-0.65;98.28;100467.50;4093498;28;20465;-72
2022/01/12 03:34:31;;;;;;;6.18;4.00;;;;;;;-0.64;97.94;100469.97;4105000;28;20054;-72
2022/01/12 03:38:38;;;;;;;5.50;3.58;;;;;;;-0.57;96.19;100467.03;4106885;28;20098;-72
2022/01/12 03:40:39;;;;;;;5.50;3.47;;;;;;;-0.53;96.59;100478.22;4092747;28;20051;-72
2022/01/12 03:42:39;;;;;;;4.60;3.08;;;;;;;-0.57;96.73;100481.47;4091938;28;20431;-72
2022/01/12 03:44:39;;;;;;;5.60;3.78;;;;;;;-0.54;96.70;100482.00;4090631;28;20051;-72
2022/01/12 03:46:49;;;;;;;5.53;3.70;;;;;;;-0.53;97.16;100481.75;4090244;28;20058;-72
2022/01/12 03:48:50;;;;;;;5.25;3.70;;;;;;;-0.52;97.03;100474.41;4092024;28;20051;-72
2022/01/12 03:50:50;;;;;;;4.65;3.33;;;;;;;-0.50;96.50;100486.66;4091291;28;20054;-72
2022/01/12 03:52:50;;;;;;;6.70;4.20;;;;;;;-0.49;96.88;100474.75;4093283;28;20093;-72
2022/01/12 03:54:51;;;;;;;7.30;3.72;;;;;;;-0.49;97.67;100472.03;4089947;28;20063;-72
2022/01/12 03:56:51;;;;;;;6.22;3.80;;;;;;;-0.46;97.77;100481.56;4090118;28;20773;-72
2022/01/12 03:58:51;;;;;;;5.97;3.65;;;;;;;-0.43;95.98;100475.59;4089888;28;20133;-72
2022/01/12 04:00:52;;;;;;;7.18;4.43;;;;;;;-0.38;95.05;100481.09;4090127;28;20050;-72
2022/01/12 04:02:52;;;;;;;5.78;3.72;;;;;;;-0.41;94.85;100478.91;4090897;28;20070;-72
2022/01/12 04:05:25;;;;;;;6.22;3.90;;;;;;;-0.43;95.07;100486.47;4092499;28;20047;-72
2022/01/12 04:09:34;;;;;;;5.68;3.55;;;;;;;-0.43;95.89;100491.91;4093952;28;20453;-72
2022/01/12 04:11:34;;;;;;;5.82;4.10;;;;;;;-0.42;96.67;100494.38;4090495;28;20318;-72
2022/01/12 04:13:35;;;;;;;6.30;3.90;;;;;;;-0.42;96.57;100490.81;4090290;28;20416;-72
2022/01/12 04:15:35;;;;;;;6.15;3.60;;;;;;;-0.37;94.75;100491.72;4090084;28;20058;-72
2022/01/12 04:17:36;;;;;;;5.88;3.75;;;;;;;-0.34;94.50;100491.19;4091700;28;20056;-72
2022/01/12 04:19:37;;;;;;;5.63;4.05;;;;;;;-0.35;94.88;100494.16;4090010;28;20105;-72
2022/01/12 04:21:43;;;;;;;7.97;3.97;;;;;;;-0.36;94.89;100487.91;4089609;28;20494;-72
2022/01/12 04:23:43;;;;;;;9.60;5.78;;;;;;;-0.33;94.41;100487.41;4091676;28;20383;-72
2022/01/12 04:25:49;;;;;;;7.10;4.47;;;;;;;-0.31;94.48;100490.69;4089839;28;20133;-72
2022/01/12 04:27:49;;;;;;;8.00;4.72;;;;;;;-0.33;95.81;100484.69;4108110;28;20047;-72
2022/01/12 04:29:50;;;;;;;7.22;4.30;;;;;;;-0.34;96.08;100485.75;4091124;28;20501;-72
2022/01/12 04:31:50;;;;;;;5.28;4.03;;;;;;;-0.37;95.78;100488.16;4100974;28;20071;-72
2022/01/12 04:33:51;;;;;;;7.93;4.05;;;;;;;-0.35;97.62;100484.09;4091604;28;20457;-72
2022/01/12 04:35:54;;;;;;;7.10;3.80;;;;;;;-0.36;98.28;100471.59;4091894;28;20062;-72
2022/01/12 04:37:54;;;;;;;7.35;4.30;;;;;;;-0.33;99.73;100473.00;4096656;28;20058;-72
2022/01/12 04:39:55;;;;;;;6.18;3.90;;;;;;;-0.35;99.72;100472.41;4091498;28;20047;-72
2022/01/12 04:41:55;;;;;;;5.93;3.88;;;;;;;-0.34;99.66;100474.03;4093107;28;20065;-72
2022/01/12 04:43:56;;;;;;;6.00;4.18;;;;;;;-0.32;100.00;100471.91;4094804;28;20841;-72
2022/01/12 04:48:02;;;;;;;6.35;3.95;;;;;;;-0.34;100.00;100472.16;4092253;28;20495;-72
2022/01/12 04:50:02;;;;;;;6.68;4.30;;;;;;;-0.32;100.00;100478.16;4088481;28;20043;-72
2022/01/12 04:52:03;;;;;;;7.07;3.97;;;;;;;-0.33;100.00;100483.88;4094457;28;20403;-72
2022/01/12 04:54:04;;;;;;;6.53;3.55;;;;;;;-0.31;100.00;100487.97;4095812;28;20743;-72
2022/01/12 04:56:05;;;;;;;7.35;4.57;;;;;;;-0.30;100.00;100486.88;4092939;28;20189;-72
2022/01/12 04:58:06;;;;;;;6.00;4.03;;;;;;;-0.30;100.00;100484.16;4095563;28;20302;-72
2022/01/12 05:00:16;;;;;;;8.10;4.40;;;;;;;-0.30;100.00;100480.63;4100473;28;20051;-72
2022/01/12 05:07:13;;;;;;;5.72;3.83;;;;;;;-0.31;100.00;100479.81;4089116;28;20073;-72
2022/01/12 05:09:28;;;;;;;6.38;3.75;;;;;;;-0.31;100.00;100466.22;4089120;28;20482;-72
2022/01/12 05:13:49;;;;;;;7.40;3.75;;;;;;;-0.39;100.00;100480.28;4089556;28;20066;-72
2022/01/12 05:15:50;;;;;;;7.05;4.45;;;;;;;-0.43;100.00;100470.97;4093462;28;20054;-72
2022/01/12 05:17:51;;;;;;;6.38;3.90;;;;;;;-0.48;100.00;100470.13;4094094;28;20461;-72
2022/01/12 05:19:51;;;;;;;6.70;4.00;;;;;;;-0.55;100.00;100475.75;4091417;28;20069;-72
2022/01/12 05:21:51;;;;;;;5.70;3.30;;;;;;;-0.62;100.00;100456.09;4091634;28;20070;-72
2022/01/12 05:23:52;;;;;;;6.72;4.40;;;;;;;-0.62;100.00;100465.06;4093509;28;20153;-72
2022/01/12 05:25:52;;;;;;;6.45;4.43;;;;;;;-0.63;100.00;100465.34;4091793;28;20088;-72
2022/01/12 05:27:54;;;;;;;9.55;4.95;;;;;;;-0.63;100.00;100468.06;4089630;28;20044;-72
2022/01/12 05:29:54;;;;;;;7.85;4.80;;;;;;;-0.66;100.00;100460.44;4092472;28;20043;-72
2022/01/12 05:31:54;;;;;;;10.38;5.43;;;;;;;-0.67;100.00;100470.44;4091090;28;20114;-72
2022/01/12 05:33:58;;;;;;;7.50;4.65;;;;;;;-0.65;100.00;100481.91;4090704;28;20058;-72
2022/01/12 05:36:01;;;;;;;12.50;6.47;;;;;;;-0.66;100.00;100472.13;4092138;28;20051;-72
2022/01/12 05:38:02;;;;;;;;;;;;;;;-0.64;100.00;100475.41;4089143;28;20048;-72
2022/01/12 05:40:04;;;;;;;17.15;8.93;;;;;;;-0.64;100.00;100477.28;4090205;28;19995;-72
2022/01/12 05:42:05;;;;;;;12.73;8.20;;;;;;;-0.60;100.00;100490.09;4092467;28;20042;-72
2022/01/12 05:44:07;;;;;;;14.05;8.25;;;;;;;-0.61;100.00;100485.75;4090053;28;20055;-72
2022/01/12 05:46:13;;;;;;;14.18;7.90;;;;;;;-0.62;100.00;100484.13;4090352;28;20031;-72
2022/01/12 05:50:14;;;;;;;13.77;6.82;;;;;;;-0.61;100.00;100490.38;4090728;28;20059;-72
2022/01/12 05:52:19;;;;;;;11.25;6.57;;;;;;;-0.64;100.00;100489.00;4089965;28;20031;-72
2022/01/12 05:54:19;;;;;;;15.50;7.18;;;;;;;-0.63;100.00;100492.53;4091579;28;20309;-72
2022/01/12 05:56:20;;;;;;;13.45;7.57;;;;;;;-0.64;100.00;100482.72;4066492;28;20041;-72
2022/01/12 05:58:20;;;;;;;15.68;7.97;;;;;;;-0.58;100.00;100496.13;4080343;28;20083;-72
2022/01/12 06:00:23;;;;;;;12.98;6.90;;;;;;;-0.55;100.00;100497.50;4077738;28;20047;-72
2022/01/12 06:02:23;;;;;;;;;;;;;;;-0.51;100.00;100500.53;4074622;28;20051;-72
2022/01/12 06:04:23;;;;;;;30.90;13.20;;;;;;;-0.51;100.00;100490.47;4075003;28;19922;-72
2022/01/12 06:06:24;;;;;;;24.20;13.20;;;;;;;-0.51;100.00;100495.09;4075215;28;20042;-72
2022/01/12 06:08:24;;;;;;;29.40;14.45;;;;;;;-0.51;100.00;100504.06;4072694;28;20055;-72
2022/01/12 06:10:25;;;;;;;37.05;17.30;;;;;;;-0.55;100.00;100505.66;4073089;28;20071;-72
2022/01/12 06:12:25;;;;;;;21.70;11.38;;;;;;;-0.59;100.00;100499.91;4156392;28;20046;-72
2022/01/12 06:14:26;;;;;;;20.13;10.60;;;;;;;-0.58;100.00;100503.44;4083674;28;20067;-72
2022/01/12 06:16:27;;;;;;;72.32;34.40;;;;;;;-0.61;100.00;100493.09;4090285;28;20473;-72
2022/01/12 06:18:28;;;;;;;44.95;22.42;;;;;;;-0.60;100.00;100500.97;4077370;28;20488;-72
2022/01/12 06:20:28;;;;;;;51.00;23.40;;;;;;;-0.59;100.00;100497.19;4072904;28;20047;-72
2022/01/12 06:22:28;;;;;;;43.50;18.67;;;;;;;-0.59;100.00;100496.38;4072322;28;20052;-72
2022/01/12 06:24:29;;;;;;;34.20;16.58;;;;;;;-0.54;100.00;100499.16;4072416;28;20047;-72
2022/01/12 06:26:29;;;;;;;17.83;9.93;;;;;;;-0.51;99.40;100501.34;4072632;28;20231;-72
2022/01/12 06:31:17;;;;;;;8.52;5.53;;;;;;;-0.46;98.39;100508.75;4072218;28;20077;-72
2022/01/12 06:32:58;;;;;;;10.02;5.13;;;;;;;-0.47;98.52;100513.38;4082792;28;20043;-72
2022/01/12 06:34:58;;;;;;;7.20;4.18;;;;;;;-0.48;98.80;100516.34;4094843;28;20326;-72
2022/01/12 06:36:59;;;;;;;9.80;5.22;;;;;;;-0.53;98.89;100519.00;4086130;28;20419;-72
2022/01/12 06:38:59;;;;;;;7.72;4.63;;;;;;;-0.54;99.57;100520.91;4171007;28;20308;-72
2022/01/12 06:41:00;;;;;;;8.23;4.88;;;;;;;-0.58;99.59;100514.31;4075727;28;20590;-72
2022/01/12 06:43:02;;;;;;;8.45;4.90;;;;;;;-0.61;99.96;100506.69;4071659;28;20068;-72
2022/01/12 06:45:02;;;;;;;10.18;6.55;;;;;;;-0.63;100.00;100500.69;4072757;28;20052;-72
2022/01/12 06:47:04;;;;;;;8.63;5.22;;;;;;;-0.65;100.00;100502.84;4071189;28;20428;-72
2022/01/12 06:49:04;;;;;;;10.30;5.78;;;;;;;-0.65;100.00;100494.69;4076795;28;20074;-72
2022/01/12 06:51:05;;;;;;;10.05;5.75;;;;;;;-0.67;100.00;100504.97;4071944;28;20483;-72
2022/01/12 06:53:05;;;;;;;10.00;5.95;;;;;;;-0.72;100.00;100505.75;4071543;28;20056;-72
2022/01/12 06:55:06;;;;;;;12.73;6.28;;;;;;;-0.75;100.00;100508.97;4078766;28;20078;-72
2022/01/12 06:57:06;;;;;;;8.95;5.22;;;;;;;-0.72;100.00;100516.63;4074844;28;20162;-72
2022/01/12 06:59:07;;;;;;;10.65;5.85;;;;;;;-0.73;100.00;100522.31;4073292;28;20491;-72
2022/01/12 07:01:07;;;;;;;9.98;6.28;;;;;;;-0.76;100.00;100520.91;4077921;28;20193;-72
2022/01/12 07:03:07;;;;;;;9.35;5.03;;;;;;;-0.77;100.00;100532.03;4076631;28;20081;-72
2022/01/12 07:05:08;;;;;;;9.73;5.95;;;;;;;-0.79;100.00;100539.63;4077006;28;20392;-72
2022/01/12 07:07:10;;;;;;;8.95;5.43;;;;;;;-0.78;100.00;100549.44;4079116;28;20044;-72
2022/01/12 07:09:10;;;;;;;12.35;5.95;;;;;;;-0.80;100.00;100549.69;4078268;28;20488;-72
2022/01/12 07:11:11;;;;;;;7.32;5.22;;;;;;;-0.83;100.00;100554.78;4081029;28;20105;-72
2022/01/12 07:13:13;;;;;;;8.43;4.55;;;;;;;-0.88;100.00;100553.66;4078188;28;20143;-72
2022/01/12 07:15:14;;;;;;;11.43;5.55;;;;;;;-0.90;100.00;100558.53;4077575;28;20060;-72
2022/01/12 07:17:14;;;;;;;9.32;5.30;;;;;;;-0.87;100.00;100554.47;4075807;28;20050;-72
2022/01/12 07:19:15;;;;;;;10.52;5.53;;;;;;;-0.86;100.00;100547.97;4078909;28;20055;-72
2022/01/12 07:21:15;;;;;;;9.93;5.82;;;;;;;-0.82;100.00;100554.56;4077337;28;20047;-72
2022/01/12 07:23:15;;;;;;;9.90;5.65;;;;;;;-0.81;100.00;100547.22;4077823;28;20502;-72
2022/01/12 07:25:16;;;;;;;10.45;5.85;;;;;;;-0.81;100.00;100556.19;4079810;28;20042;-72
2022/01/12 07:27:16;;;;;;;11.57;6.93;;;;;;;-0.87;100.00;100554.47;4077122;28;20052;-72
2022/01/12 07:29:17;;;;;;;15.38;8.13;;;;;;;-0.92;100.00;100563.38;4076637;28;20035;-72
2022/01/12 07:31:17;;;;;;;14.57;8.00;;;;;;;-0.91;100.00;100561.47;4082348;28;20051;-72
2022/01/12 07:33:18;;;;;;;12.50;7.57;;;;;;;-0.90;100.00;100574.03;4077037;28;20055;-72
2022/01/12 07:35:18;;;;;;;17.05;8.23;;;;;;;-0.91;100.00;100567.78;4076531;28;20118;-72
2022/01/12 07:37:18;;;;;;;12.63;8.20;;;;;;;-0.91;100.00;100575.91;4077496;28;20491;-72
2022/01/12 07:39:19;;;;;;;14.73;8.57;;;;;;;-0.96;100.00;100589.44;4077688;28;20273;-72
2022/01/12 07:41:19;;;;;;;16.63;8.38;;;;;;;-1.00;100.00;100598.31;4080533;28;20158;-72
2022/01/12 07:43:20;;;;;;;12.57;7.43;;;;;;;-1.02;100.00;100611.34;4080229;28;20223;-72
2022/01/12 07:45:21;;;;;;;12.05;7.20;;;;;;;-1.00;100.00;100609.19;4076617;28;20134;-72
2022/01/12 07:47:21;;;;;;;13.75;7.97;;;;;;;-0.97;100.00;100611.41;4076302;28;20079;-72
2022/01/12 07:49:22;;;;;;;12.07;7.65;;;;;;;-0.90;100.00;100615.59;4076508;28;20526;-72
2022/01/12 07:51:22;;;;;;;13.18;7.13;;;;;;;-0.85;100.00;100617.56;4082646;28;20048;-72
2022/01/12 07:53:23;;;;;;;11.48;6.90;;;;;;;-0.80;100.00;100617.63;4078237;28;20055;-72
2022/01/12 07:55:24;;;;;;;12.52;7.53;;;;;;;-0.73;100.00;100631.88;4075984;28;20087;-72
2022/01/12 07:57:25;;;;;;;11.85;7.22;;;;;;;-0.70;100.00;100635.97;4081818;28;20055;-72
2022/01/12 07:59:25;;;;;;;11.48;6.75;;;;;;;-0.70;100.00;100625.09;4076558;28;20101;-72
2022/01/12 08:01:25;;;;;;;11.05;6.72;;;;;;;-0.66;100.00;100640.69;4077372;28;20048;-72
2022/01/12 08:03:26;;;;;;;10.18;6.00;;;;;;;-0.67;100.00;100635.47;4075813;28;20534;-72
2022/01/12 08:05:26;;;;;;;8.88;5.70;;;;;;;-0.63;100.00;100634.72;4076539;28;20512;-72
2022/01/12 08:07:26;;;;;;;11.13;5.78;;;;;;;-0.58;100.00;100631.22;4080851;28;20461;-72
2022/01/12 08:09:27;;;;;;;10.95;6.50;;;;;;;-0.54;100.00;100626.13;4076397;28;20877;-72
2022/01/12 08:11:29;;;;;;;10.25;6.05;;;;;;;-0.50;100.00;100622.63;4073804;28;20639;-72
2022/01/12 08:13:29;;;;;;;8.55;5.68;;;;;;;-0.49;100.00;100620.78;4079319;28;20330;-72
2022/01/12 08:15:30;;;;;;;11.57;6.13;;;;;;;-0.50;100.00;100617.19;4074981;28;20052;-72
2022/01/12 08:17:30;;;;;;;12.77;7.30;;;;;;;-0.47;100.00;100614.00;4077548;28;20403;-72
2022/01/12 08:19:34;;;;;;;12.05;7.45;;;;;;;-0.45;100.00;100608.28;4074689;28;20054;-72
2022/01/12 08:21:35;;;;;;;11.32;6.85;;;;;;;-0.42;100.00;100611.31;4074493;28;20048;-72
2022/01/12 08:23:36;;;;;;;13.63;7.95;;;;;;;-0.44;100.00;100612.66;4075811;28;20425;-72
2022/01/12 08:25:40;;;;;;;10.85;6.40;;;;;;;-0.42;100.00;100614.03;4074434;28;20395;-72
2022/01/12 08:27:40;;;;;;;13.55;6.43;;;;;;;-0.42;100.00;100610.50;4075637;28;20051;-72
2022/01/12 08:29:40;;;;;;;11.45;6.40;;;;;;;-0.41;100.00;100604.81;4074170;28;20850;-72
2022/01/12 08:31:42;;;;;;;11.00;6.18;;;;;;;-0.36;100.00;100602.16;4077737;28;20066;-72
2022/01/12 08:33:43;;;;;;;12.30;6.77;;;;;;;-0.31;100.00;100604.94;4074239;28;20125;-72
2022/01/12 08:35:44;;;;;;;11.70;8.00;;;;;;;-0.26;100.00;100595.19;4073613;28;20079;-72
2022/01/12 08:37:46;;;;;;;15.27;9.80;;;;;;;-0.26;100.00;100589.75;4073549;28;20382;-72
2022/01/12 08:39:46;;;;;;;15.75;7.57;;;;;;;-0.25;100.00;100586.75;4079104;28;20048;-72
2022/01/12 08:41:46;;;;;;;8.98;5.63;;;;;;;-0.22;100.00;100586.25;4157189;28;20049;-72
2022/01/12 08:43:47;;;;;;;11.35;6.68;;;;;;;-0.20;100.00;100597.69;4074901;28;20075;-72
2022/01/12 08:45:48;;;;;;;11.65;7.03;;;;;;;-0.17;100.00;100596.38;4072901;28;20056;-72
2022/01/12 08:47:48;;;;;;;11.90;7.15;;;;;;;-0.16;100.00;100595.31;4074359;28;20040;-72
2022/01/12 08:49:49;;;;;;;12.32;6.30;;;;;;;-0.12;100.00;100608.13;4073347;28;20047;-72
2022/01/12 08:51:49;;;;;;;12.38;6.60;;;;;;;-0.10;100.00;100608.69;4077003;28;20075;-72
2022/01/12 08:53:49;;;;;;;9.98;6.45;;;;;;;-0.07;100.00;100610.09;4074305;28;20130;-72
2022/01/12 08:55:50;;;;;;;13.23;7.60;;;;;;;-0.04;100.00;100609.56;4072972;28;20062;-72
2022/01/12 08:57:51;;;;;;;10.60;6.68;;;;;;;-0.04;100.00;100609.56;4073330;28;20501;-72
2022/01/12 08:59:51;;;;;;;13.50;7.35;;;;;;;-0.06;100.00;100612.56;4072386;28;20539;-72
2022/01/12 09:01:51;;;;;;;11.38;6.72;;;;;;;-0.03;100.00;100617.47;4073617;28;20078;-72
2022/01/12 09:03:52;;;;;;;14.20;7.45;;;;;;;0.02;100.00;100614.00;4073119;28;20442;-72
2022/01/12 09:05:52;;;;;;;16.40;7.57;;;;;;;0.04;100.00;100608.31;4073136;28;20609;-72
2022/01/12 09:07:53;;;;;;;11.45;7.03;;;;;;;0.10;100.00;100605.38;4073588;28;20074;-72
2022/01/12 09:09:53;;;;;;;12.45;7.32;;;;;;;0.12;99.91;100610.56;4075303;28;20491;-72
2022/01/12 09:11:53;;;;;;;16.08;6.97;;;;;;;0.15;100.00;100608.13;4074058;28;20043;-72
2022/01/12 09:13:54;;;;;;;15.07;7.55;;;;;;;0.38;97.23;100619.78;4073722;28;20044;-72
2022/01/12 09:15:54;;;;;;;16.35;8.55;;;;;;;0.48;96.61;100617.16;4071919;28;20134;-72
2022/01/12 09:17:56;;;;;;;21.58;9.43;;;;;;;0.51;96.83;100614.75;4073005;28;20069;-72
2022/01/12 09:19:57;;;;;;;17.35;9.38;;;;;;;0.62;95.59;100614.81;4077150;28;20051;-72
2022/01/12 09:21:57;;;;;;;21.70;9.77;;;;;;;0.68;95.37;100628.22;4073372;28;20085;-72
2022/01/12 09:23:57;;;;;;;12.30;6.47;;;;;;;0.76;94.39;100629.66;4072432;28;20877;-72
2022/01/12 09:25:58;;;;;;;11.55;6.60;;;;;;;0.79;94.49;100631.84;4074273;28;20075;-72
2022/01/12 09:28:02;;;;;;;8.15;5.15;;;;;;;0.87;92.63;100627.81;4072520;28;20174;-72
2022/01/12 09:30:04;;;;;;;9.13;5.32;;;;;;;0.97;91.07;100636.88;4073611;28;20054;-72
2022/01/12 09:32:04;;;;;;;9.38;5.22;;;;;;;1.00;90.90;100641.00;4073525;28;20040;-72
2022/01/12 09:34:06;;;;;;;8.82;5.18;;;;;;;1.04;91.27;100647.56;4075561;28;20593;-72
2022/01/12 09:36:07;;;;;;;8.85;5.32;;;;;;;1.07;91.33;100650.56;4072879;28;20501;-72
2022/01/12 09:38:07;;;;;;;9.98;5.40;;;;;;;1.06;91.52;100639.94;4080729;28;20450;-72
2022/01/12 09:40:09;;;;;;;9.00;5.53;;;;;;;1.07;92.70;100647.84;4073701;28;20166;-72
2022/01/12 09:42:09;;;;;;;9.10;5.05;;;;;;;1.12;90.07;100655.25;4077661;28;20109;-72
2022/01/12 09:44:09;;;;;;;10.45;5.38;;;;;;;1.10;90.79;100650.06;4075760;28;20042;-72
2022/01/12 09:46:11;;;;;;;9.55;5.32;;;;;;;1.14;91.55;100653.06;4073056;28;20074;-72
2022/01/12 09:48:12;;;;;;;7.88;5.25;;;;;;;1.18;92.54;100658.84;4072998;28;20044;-72
2022/01/12 09:50:14;;;;;;;8.80;5.28;;;;;;;1.18;90.98;100656.94;4073535;28;20376;-72
2022/01/12 09:52:15;;;;;;;9.88;5.60;;;;;;;1.23;90.92;100651.50;4076163;28;20464;-72
2022/01/12 09:54:16;;;;;;;7.38;4.75;;;;;;;1.29;90.23;100655.09;4074743;28;20480;-72
2022/01/12 09:56:22;;;;;;;9.05;5.28;;;;;;;1.29;90.29;100653.19;4072647;28;20048;-72
2022/01/12 09:58:22;;;;;;;8.55;5.18;;;;;;;1.35;90.47;100654.03;4075755;28;20074;-72
2022/01/12 10:00:26;;;;;;;8.68;5.50;;;;;;;1.34;90.74;100652.41;4073207;28;20047;-72
2022/01/12 10:02:26;;;;;;;7.82;5.05;;;;;;;1.34;89.58;100664.13;4074041;28;20054;-72
2022/01/12 10:04:31;;;;;;;8.48;4.88;;;;;;;1.40;89.45;100660.31;4072891;28;20044;-72
2022/01/12 10:06:38;;;;;;;8.65;4.50;;;;;;;1.41;88.67;100652.97;4075443;28;20521;-72
2022/01/12 10:08:39;;;;;;;8.80;4.90;;;;;;;1.45;89.36;100647.81;4078173;28;20058;-72
2022/01/12 10:10:41;;;;;;;8.75;5.07;;;;;;;1.45;89.70;100650.53;4076959;28;20043;-72
2022/01/12 10:12:53;;;;;;;11.35;5.57;;;;;;;1.47;90.09;100649.19;4072141;28;20389;-72
2022/01/12 10:14:55;;;;;;;12.32;7.40;;;;;;;1.50;89.97;100642.38;4075151;28;20055;-72
2022/01/12 10:16:58;;;;;;;7.88;5.40;;;;;;;1.60;87.33;100634.25;4072596;28;20044;-72
2022/01/12 10:18:59;;;;;;;;;;;;;;;1.57;88.81;100632.88;4075707;28;20047;-72
2022/01/12 10:21:00;;;;;;;11.48;6.15;;;;;;;1.52;89.66;100627.38;4073177;28;19923;-72
2022/01/12 10:23:07;;;;;;;14.02;6.43;;;;;;;1.55;89.78;100631.47;4072631;28;20515;-72
2022/01/12 10:25:19;;;;;;;9.45;5.93;;;;;;;1.49;90.19;100622.47;4072029;28;20498;-72
2022/01/12 10:27:20;;;;;;;12.10;6.35;;;;;;;1.50;89.98;100623.28;4073958;28;20043;-72
2022/01/12 10:29:23;;;;;;;9.10;5.43;;;;;;;1.50;89.97;100612.38;4071953;28;20044;-72
2022/01/12 10:31:24;;;;;;;9.55;6.28;;;;;;;1.50;90.69;100609.66;4071997;28;20416;-72
2022/01/12 10:33:33;;;;;;;10.93;6.22;;;;;;;1.55;89.87;100617.84;4072860;28;20048;-72
2022/01/12 10:35:37;;;;;;;11.40;6.60;;;;;;;1.53;90.47;100601.75;4076757;28;20116;-72